createdAt,value
2018-04-06T00:02:13.333Z,15.49
2018-04-06T00:04:41.063Z,15.41
2018-04-06T00:07:08.642Z,15.39
2018-04-06T00:09:36.194Z,15.38
2018-04-06T00:12:03.893Z,15.32
2018-04-06T00:14:31.725Z,15.27
2018-04-06T00:16:59.443Z,15.23
2018-04-06T00:19:27.018Z,15.27
2018-04-06T00:21:54.588Z,15.26
2018-04-06T00:24:22.396Z,15.22
2018-04-06T00:26:50.114Z,15.09
2018-04-06T00:29:17.935Z,14.98
2018-04-06T00:31:45.498Z,14.93
2018-04-06T00:34:13.047Z,14.88
2018-04-06T00:36:40.627Z,14.88
2018-04-06T00:39:08.186Z,14.95
2018-04-06T00:41:35.792Z,14.91
2018-04-06T00:44:03.540Z,14.87
2018-04-06T00:46:31.153Z,14.81
2018-04-06T00:48:58.876Z,14.77
2018-04-06T00:51:26.439Z,14.78
2018-04-06T00:53:54.023Z,14.79
2018-04-06T00:56:21.581Z,14.83
2018-04-06T00:58:49.348Z,14.86
2018-04-06T01:01:17.166Z,14.91
2018-04-06T01:03:44.989Z,14.93
2018-04-06T01:06:12.576Z,14.93
2018-04-06T01:08:40.321Z,14.97
2018-04-06T01:11:07.934Z,15.00
2018-04-06T01:13:35.498Z,14.99
2018-04-06T01:16:03.062Z,15.00
2018-04-06T01:18:30.638Z,15.04
2018-04-06T01:20:58.302Z,14.94
2018-04-06T01:23:25.939Z,14.73
2018-04-06T01:25:53.521Z,14.67
2018-04-06T01:28:21.265Z,14.65
2018-04-06T01:30:48.930Z,14.71
2018-04-06T01:33:16.505Z,14.71
2018-04-06T01:35:44.321Z,14.74
2018-04-06T01:38:12.812Z,14.81
2018-04-06T01:40:40.625Z,14.89
2018-04-06T01:43:08.189Z,14.92
2018-04-06T01:45:35.742Z,14.85
2018-04-06T01:48:03.334Z,14.82
2018-04-06T01:50:30.915Z,14.73
2018-04-06T01:52:58.536Z,14.67
2018-04-06T01:55:26.269Z,14.63
2018-04-06T01:57:53.987Z,14.66
2018-04-06T02:00:21.804Z,14.69
2018-04-06T02:02:49.351Z,14.64
2018-04-06T02:05:17.140Z,14.56
2018-04-06T02:07:44.737Z,14.51
2018-04-06T02:10:12.305Z,14.39
2018-04-06T02:12:39.879Z,14.37
2018-04-06T02:15:07.466Z,14.38
2018-04-06T02:17:35.034Z,14.32
2018-04-06T02:20:02.846Z,14.31
2018-04-06T02:22:30.557Z,14.22
2018-04-06T02:24:58.284Z,14.22
2018-04-06T02:27:25.842Z,14.19
2018-04-06T02:29:53.619Z,14.19
2018-04-06T02:32:21.401Z,14.20
2018-04-06T02:34:49.143Z,14.20
2018-04-06T02:37:16.710Z,14.21
2018-04-06T02:39:44.332Z,14.17
2018-04-06T02:42:11.891Z,14.21
2018-04-06T02:44:39.447Z,14.22
2018-04-06T02:47:07.259Z,14.25
2018-04-06T02:49:34.822Z,14.19
2018-04-06T02:52:02.462Z,14.14
2018-04-06T02:54:30.203Z,14.17
2018-04-06T02:56:57.840Z,14.18
2018-04-06T02:59:25.398Z,14.17
2018-04-06T03:01:52.951Z,14.15
2018-04-06T03:04:20.521Z,14.23
2018-04-06T03:06:48.089Z,14.25
2018-04-06T03:09:15.733Z,14.27
2018-04-06T03:11:43.280Z,14.35
2018-04-06T03:14:10.898Z,14.42
2018-04-06T03:16:38.624Z,14.49
2018-04-06T03:19:06.183Z,14.54
2018-04-06T03:21:33.999Z,14.55
2018-04-06T03:24:01.565Z,14.48
2018-04-06T03:26:29.130Z,14.26
2018-04-06T03:28:56.689Z,13.93
2018-04-06T03:31:24.295Z,13.80
2018-04-06T03:33:52.088Z,13.79
2018-04-06T03:36:19.657Z,13.81
2018-04-06T03:38:47.217Z,13.85
2018-04-06T03:41:14.782Z,13.96
2018-04-06T03:43:42.463Z,14.01
2018-04-06T03:46:10.014Z,14.06
2018-04-06T03:48:37.647Z,14.13
2018-04-06T03:51:05.274Z,14.15
2018-04-06T03:53:33.031Z,14.16
2018-04-06T03:56:00.595Z,14.18
2018-04-06T03:58:28.372Z,14.09
2018-04-06T04:00:55.955Z,14.00
2018-04-06T04:03:23.666Z,13.99
2018-04-06T04:05:51.525Z,13.93
2018-04-06T04:08:19.242Z,13.94
2018-04-06T04:10:46.805Z,13.95
2018-04-06T04:13:14.375Z,13.99
2018-04-06T04:15:42.093Z,14.05
2018-04-06T04:18:09.662Z,14.03
2018-04-06T04:20:37.407Z,14.03
2018-04-06T04:23:05.013Z,14.02
2018-04-06T04:25:32.573Z,13.96
2018-04-06T04:28:00.394Z,13.91
2018-04-06T04:30:27.971Z,13.89
2018-04-06T04:32:55.690Z,13.89
2018-04-06T04:35:23.406Z,13.89
2018-04-06T04:37:50.962Z,13.90
2018-04-06T04:40:18.581Z,13.85
2018-04-06T04:42:46.146Z,13.78
2018-04-06T04:45:13.709Z,13.76
2018-04-06T04:47:41.319Z,13.84
2018-04-06T04:50:08.881Z,13.89
2018-04-06T04:52:36.663Z,13.96
2018-04-06T04:55:04.485Z,13.89
2018-04-06T04:57:32.109Z,13.83
2018-04-06T04:59:59.675Z,13.78
2018-04-06T05:02:27.248Z,13.74
2018-04-06T05:04:55.068Z,13.70
2018-04-06T05:07:22.622Z,13.67
2018-04-06T05:09:50.192Z,13.70
2018-04-06T05:12:17.749Z,13.68
2018-04-06T05:14:45.530Z,13.66
2018-04-06T05:17:13.258Z,13.73
2018-04-06T05:19:41.064Z,13.81
2018-04-06T05:22:08.670Z,13.87
2018-04-06T05:24:36.436Z,13.92
2018-04-06T05:27:04.279Z,13.88
2018-04-06T05:29:31.996Z,13.83
2018-04-06T05:31:59.713Z,13.77
2018-04-06T05:34:27.290Z,13.77
2018-04-06T05:36:54.852Z,13.88
2018-04-06T05:39:22.432Z,14.02
2018-04-06T05:41:49.994Z,14.21
2018-04-06T05:44:17.632Z,14.36
2018-04-06T05:46:45.362Z,14.57
2018-04-06T05:49:13.073Z,14.77
2018-04-06T05:51:40.901Z,15.09
2018-04-06T05:54:08.462Z,15.36
2018-04-06T05:56:36.038Z,15.60
2018-04-06T05:59:03.646Z,15.86
2018-04-06T06:01:31.417Z,16.07
2018-04-06T06:03:59.153Z,16.43
2018-04-06T06:06:26.714Z,17.10
2018-04-06T06:08:54.425Z,17.49
2018-04-06T06:11:22.243Z,17.70
2018-04-06T06:13:49.817Z,17.96
2018-04-06T06:16:17.378Z,18.51
2018-04-06T06:18:45.154Z,19.35
2018-04-06T06:21:13.016Z,20.26
2018-04-06T06:23:40.578Z,20.91
2018-04-06T06:26:08.329Z,21.12
2018-04-06T06:28:36.047Z,20.49
2018-04-06T06:31:03.888Z,20.17
2018-04-06T06:33:31.442Z,19.83
2018-04-06T06:35:59.074Z,19.42
2018-04-06T06:38:26.843Z,19.11
2018-04-06T06:40:54.402Z,18.81
2018-04-06T06:43:21.978Z,18.74
2018-04-06T06:45:49.556Z,18.79
2018-04-06T06:48:17.134Z,18.56
2018-04-06T06:50:44.693Z,18.33
2018-04-06T06:53:12.439Z,18.19
2018-04-06T06:55:40.067Z,18.17
2018-04-06T06:58:07.635Z,18.08
2018-04-06T07:00:35.404Z,17.93
2018-04-06T07:03:02.980Z,17.81
2018-04-06T07:05:30.727Z,17.66
2018-04-06T07:07:58.458Z,17.66
2018-04-06T07:10:26.090Z,17.64
2018-04-06T07:12:53.652Z,17.55
2018-04-06T07:15:21.210Z,17.35
2018-04-06T07:17:48.782Z,17.32
2018-04-06T07:20:16.548Z,17.07
2018-04-06T07:22:44.151Z,16.95
2018-04-06T07:25:11.692Z,16.86
2018-04-06T07:27:39.294Z,16.73
2018-04-06T07:30:06.854Z,16.54
2018-04-06T07:32:34.408Z,16.52
2018-04-06T07:35:02.073Z,16.60
2018-04-06T07:37:29.873Z,16.81
2018-04-06T07:39:57.692Z,16.99
2018-04-06T07:42:25.254Z,16.98
2018-04-06T07:44:52.866Z,16.71
2018-04-06T07:47:20.430Z,16.85
2018-04-06T07:49:48.006Z,17.23
2018-04-06T07:52:15.782Z,17.57
2018-04-06T07:54:43.350Z,17.65
2018-04-06T07:57:11.096Z,17.67
2018-04-06T07:59:38.658Z,17.78
2018-04-06T08:02:06.325Z,17.91
2018-04-06T08:04:33.885Z,18.08
2018-04-06T08:07:01.449Z,18.31
2018-04-06T08:09:29.182Z,18.60
2018-04-06T08:11:56.896Z,18.68
2018-04-06T08:14:24.613Z,18.52
2018-04-06T08:16:52.181Z,18.38
2018-04-06T08:19:19.923Z,18.22
2018-04-06T08:21:47.508Z,17.99
2018-04-06T08:24:15.072Z,17.78
2018-04-06T08:26:42.834Z,17.53
2018-04-06T08:29:10.552Z,17.26
2018-04-06T08:31:38.119Z,17.22
2018-04-06T08:34:05.889Z,17.11
2018-04-06T08:36:33.707Z,16.87
2018-04-06T08:39:01.274Z,16.78
2018-04-06T08:41:29.022Z,16.81
2018-04-06T08:43:56.739Z,16.80
2018-04-06T08:46:24.455Z,16.77
2018-04-06T08:48:52.051Z,16.76
2018-04-06T08:51:19.642Z,16.82
2018-04-06T08:53:47.315Z,16.97
2018-04-06T08:56:14.862Z,17.10
2018-04-06T08:58:42.446Z,17.26
2018-04-06T09:01:10.022Z,17.45
2018-04-06T09:03:37.696Z,17.57
2018-04-06T09:06:05.314Z,17.84
2018-04-06T09:08:32.877Z,17.95
2018-04-06T09:11:00.550Z,18.15
2018-04-06T09:13:28.980Z,18.45
2018-04-06T09:15:56.569Z,18.75
2018-04-06T09:18:24.298Z,19.03
2018-04-06T09:20:52.014Z,19.07
2018-04-06T09:23:19.644Z,19.24
2018-04-06T09:25:47.197Z,19.30
2018-04-06T09:28:14.988Z,19.51
2018-04-06T09:30:42.543Z,19.78
2018-04-06T09:33:10.115Z,20.06
2018-04-06T09:35:37.682Z,20.23
2018-04-06T09:38:05.239Z,20.36
2018-04-06T09:40:32.815Z,20.39
2018-04-06T09:43:00.601Z,20.24
2018-04-06T09:45:28.414Z,19.98
2018-04-06T09:47:56.016Z,19.96
2018-04-06T09:50:23.698Z,20.04
2018-04-06T09:52:51.265Z,20.03
2018-04-06T09:55:18.803Z,20.06
2018-04-06T09:57:46.604Z,20.13
2018-04-06T10:00:32.973Z,20.27
2018-04-06T10:03:03.021Z,20.38
2018-04-06T10:05:30.584Z,20.53
2018-04-06T10:07:58.170Z,20.62
2018-04-06T10:10:25.972Z,20.58
2018-04-06T10:12:53.597Z,20.35
2018-04-06T10:15:21.161Z,20.07
2018-04-06T10:17:48.783Z,20.04
2018-04-06T10:20:16.406Z,20.27
2018-04-06T10:22:44.159Z,20.84
2018-04-06T10:25:11.977Z,21.21
2018-04-06T10:27:39.796Z,21.57
2018-04-06T10:30:07.514Z,21.57
2018-04-06T10:32:35.067Z,21.81
2018-04-06T10:35:02.631Z,22.31
2018-04-06T10:37:30.346Z,22.43
2018-04-06T10:39:57.901Z,22.26
2018-04-06T10:42:25.468Z,21.75
2018-04-06T10:44:53.045Z,21.42
2018-04-06T10:47:20.606Z,21.30
2018-04-06T10:49:48.173Z,20.89
2018-04-06T10:52:15.746Z,20.77
2018-04-06T10:54:43.358Z,20.72
2018-04-06T10:57:10.913Z,20.62
2018-04-06T10:59:38.571Z,20.59
2018-04-06T11:02:06.145Z,20.59
2018-04-06T11:04:33.966Z,20.39
2018-04-06T11:07:01.534Z,20.57
2018-04-06T11:09:29.301Z,20.88
2018-04-06T11:11:56.914Z,21.01
2018-04-06T11:14:24.485Z,20.84
2018-04-06T11:16:52.043Z,20.98
2018-04-06T11:19:19.614Z,21.02
2018-04-06T11:21:47.270Z,20.72
2018-04-06T11:24:14.849Z,20.87
2018-04-06T11:26:42.627Z,20.86
2018-04-06T11:29:10.258Z,20.84
2018-04-06T11:31:37.816Z,20.88
2018-04-06T11:34:05.681Z,20.85
2018-04-06T11:36:33.266Z,20.34
2018-04-06T11:39:00.908Z,20.09
2018-04-06T11:41:28.536Z,19.93
2018-04-06T11:43:56.148Z,19.69
2018-04-06T11:46:23.970Z,19.63
2018-04-06T11:48:51.525Z,19.65
2018-04-06T11:51:19.311Z,19.72
2018-04-06T11:53:46.917Z,19.95
2018-04-06T11:56:14.471Z,19.96
2018-04-06T11:58:42.098Z,19.93
2018-04-06T12:01:09.791Z,19.70
2018-04-06T12:03:37.354Z,19.55
2018-04-06T12:06:05.118Z,19.54
2018-04-06T12:08:32.935Z,19.58
2018-04-06T12:11:00.694Z,19.59
2018-04-06T12:13:28.266Z,19.55
2018-04-06T12:15:56.092Z,19.43
2018-04-06T12:18:23.682Z,19.48
2018-04-06T12:20:51.238Z,19.58
2018-04-06T12:23:18.822Z,19.62
2018-04-06T12:25:46.387Z,19.66
2018-04-06T12:28:14.034Z,19.59
2018-04-06T12:30:41.657Z,19.69
2018-04-06T12:33:09.209Z,19.59
2018-04-06T12:35:36.933Z,19.66
2018-04-06T12:38:04.533Z,19.71
2018-04-06T12:40:32.111Z,19.57
2018-04-06T12:42:59.804Z,19.49
2018-04-06T12:45:27.403Z,19.33
2018-04-06T12:47:54.985Z,19.19
2018-04-06T12:50:22.711Z,19.00
2018-04-06T12:52:50.279Z,18.70
2018-04-06T12:55:17.848Z,18.37
2018-04-06T12:57:45.433Z,18.29
2018-04-06T13:00:13.007Z,18.10
2018-04-06T13:02:40.613Z,17.86
2018-04-06T13:05:08.178Z,17.71
2018-04-06T13:07:35.967Z,17.52
2018-04-06T13:10:03.671Z,17.36
2018-04-06T13:12:31.244Z,17.34
2018-04-06T13:14:58.934Z,17.41
2018-04-06T13:17:26.658Z,17.45
2018-04-06T13:19:54.234Z,17.37
2018-04-06T13:22:21.806Z,17.40
2018-04-06T13:24:49.592Z,17.38
2018-04-06T13:27:17.166Z,17.46
2018-04-06T13:29:44.750Z,17.58
2018-04-06T13:32:12.399Z,17.71
2018-04-06T13:34:39.973Z,17.81
2018-04-06T13:37:07.783Z,17.87
2018-04-06T13:39:35.600Z,17.93
2018-04-06T13:42:03.159Z,18.05
2018-04-06T13:44:30.770Z,18.15
2018-04-06T13:46:58.330Z,18.09
2018-04-06T13:49:26.175Z,18.14
2018-04-06T13:51:53.991Z,18.01
2018-04-06T13:54:22.503Z,18.04
2018-04-06T13:56:50.082Z,18.07
2018-04-06T13:59:18.351Z,18.11
2018-04-06T14:01:47.054Z,18.12
2018-04-06T14:04:20.669Z,18.04
2018-04-06T14:06:48.307Z,18.00
2018-04-06T14:09:17.471Z,18.01
2018-04-06T14:11:45.037Z,18.04
2018-04-06T14:14:12.851Z,18.07
2018-04-06T14:16:40.565Z,18.06
2018-04-06T14:19:08.133Z,18.03
2018-04-06T14:21:35.694Z,17.98
2018-04-06T14:24:03.306Z,17.85
2018-04-06T14:26:31.291Z,17.86
2018-04-06T14:28:59.270Z,17.87
2018-04-06T14:31:26.834Z,17.82
2018-04-06T14:33:54.828Z,17.69
2018-04-06T14:36:23.250Z,17.52
2018-04-06T14:38:50.886Z,17.56
2018-04-06T14:41:20.591Z,17.49
2018-04-06T14:43:48.410Z,17.42
2018-04-06T14:46:15.969Z,17.39
2018-04-06T14:48:43.547Z,17.39
2018-04-06T14:51:11.229Z,17.26
2018-04-06T14:53:38.793Z,17.22
2018-04-06T14:56:06.362Z,17.30
2018-04-06T14:58:34.107Z,17.42
2018-04-06T15:01:01.666Z,17.46
2018-04-06T15:03:29.234Z,17.37
2018-04-06T15:05:56.979Z,17.35
2018-04-06T15:08:24.543Z,17.31
2018-04-06T15:10:52.315Z,17.29
2018-04-06T15:13:20.134Z,17.24
2018-04-06T15:15:47.952Z,17.35
2018-04-06T15:18:15.501Z,17.29
2018-04-06T15:20:43.066Z,17.27
2018-04-06T15:23:10.644Z,17.26
2018-04-06T15:25:38.242Z,17.28
2018-04-06T15:28:06.031Z,17.28
2018-04-06T15:30:33.721Z,17.31
2018-04-06T15:33:01.337Z,17.37
2018-04-06T15:35:28.936Z,17.39
2018-04-06T15:37:56.716Z,17.44
2018-04-06T15:40:24.533Z,17.39
2018-04-06T15:42:52.091Z,17.35
2018-04-06T15:45:19.700Z,17.26
2018-04-06T15:47:47.265Z,17.18
2018-04-06T15:50:15.106Z,17.19
2018-04-06T15:52:42.666Z,17.23
2018-04-06T15:55:10.442Z,17.12
2018-04-06T15:57:38.006Z,17.14
2018-04-06T16:00:05.614Z,17.07
2018-04-06T16:02:33.228Z,17.00
2018-04-06T16:05:00.923Z,16.93
2018-04-06T16:07:28.570Z,16.93
2018-04-06T16:09:56.157Z,16.91
2018-04-06T16:12:23.968Z,16.87
2018-04-06T16:14:51.555Z,16.81
2018-04-06T16:17:19.286Z,16.80
2018-04-06T16:19:46.896Z,16.70
2018-04-06T16:22:14.644Z,16.72
2018-04-06T16:24:42.351Z,16.74
2018-04-06T16:27:09.916Z,16.80
2018-04-06T16:29:37.514Z,16.80
2018-04-06T16:32:05.094Z,16.69
2018-04-06T16:34:32.698Z,16.68
2018-04-06T16:37:00.270Z,16.61
2018-04-06T16:39:27.827Z,16.49
2018-04-06T16:41:55.562Z,16.45
2018-04-06T16:44:23.140Z,16.49
2018-04-06T16:46:50.815Z,16.51
2018-04-06T16:49:18.374Z,16.48
2018-04-06T16:51:45.930Z,16.43
2018-04-06T16:54:13.773Z,16.33
2018-04-06T16:56:41.493Z,16.37
2018-04-06T16:59:09.310Z,16.33
2018-04-06T17:01:36.882Z,16.31
2018-04-06T17:04:04.450Z,16.34
2018-04-06T17:06:32.265Z,16.26
2018-04-06T17:09:00.083Z,16.25
2018-04-06T17:11:27.660Z,16.25
2018-04-06T17:13:55.204Z,16.23
2018-04-06T17:16:22.903Z,16.19
2018-04-06T17:18:50.649Z,16.16
2018-04-06T17:21:18.219Z,16.08
2018-04-06T17:23:46.037Z,16.10
2018-04-06T17:26:13.618Z,16.13
2018-04-06T17:28:41.241Z,16.10
2018-04-06T17:31:08.806Z,16.11
2018-04-06T17:33:36.374Z,16.12
2018-04-06T17:36:03.972Z,16.05
2018-04-06T17:38:31.535Z,16.05
2018-04-06T17:40:59.158Z,15.98
2018-04-06T17:43:26.729Z,16.00
2018-04-06T17:45:54.296Z,15.97
2018-04-06T17:48:21.982Z,15.97
2018-04-06T17:50:49.579Z,15.98
2018-04-06T17:53:17.164Z,15.97
2018-04-06T17:55:44.924Z,15.97
2018-04-06T17:58:12.495Z,15.98
2018-04-06T18:00:40.070Z,15.95
2018-04-06T18:03:07.881Z,15.96
2018-04-06T18:05:35.454Z,15.96
2018-04-06T18:08:03.028Z,15.91
2018-04-06T18:10:30.833Z,15.95
2018-04-06T18:12:58.401Z,15.96
2018-04-06T18:15:25.976Z,15.87
2018-04-06T18:17:53.786Z,15.84
2018-04-06T18:20:21.505Z,15.80
2018-04-06T18:22:49.082Z,15.79
2018-04-06T18:25:16.803Z,15.75
2018-04-06T18:27:44.558Z,15.77
2018-04-06T18:30:12.124Z,15.78
2018-04-06T18:32:39.701Z,15.67
2018-04-06T18:35:07.282Z,15.63
2018-04-06T18:37:34.854Z,15.56
2018-04-06T18:40:02.430Z,15.61
2018-04-06T18:42:29.994Z,15.60
2018-04-06T18:44:57.612Z,15.55
2018-04-06T18:47:25.404Z,15.52
2018-04-06T18:49:53.222Z,15.48
2018-04-06T18:52:21.040Z,15.46
2018-04-06T18:54:48.758Z,15.41
2018-04-06T18:57:16.373Z,15.35
2018-04-06T18:59:43.970Z,15.35
2018-04-06T19:02:11.807Z,15.34
2018-04-06T19:04:39.384Z,15.34
2018-04-06T19:07:06.958Z,15.34
2018-04-06T19:09:34.767Z,15.30
2018-04-06T19:12:02.334Z,15.34
2018-04-06T19:14:30.103Z,15.36
2018-04-06T19:16:57.708Z,15.28
2018-04-06T19:19:25.363Z,15.23
2018-04-06T19:21:53.159Z,15.22
2018-04-06T19:24:20.765Z,15.27
2018-04-06T19:26:48.594Z,15.29
2018-04-06T19:29:16.180Z,15.26
2018-04-06T19:31:43.931Z,15.26
2018-04-06T19:34:11.490Z,15.26
2018-04-06T19:36:39.157Z,15.24
2018-04-06T19:39:06.786Z,15.24
2018-04-06T19:41:34.350Z,15.26
2018-04-06T19:44:01.954Z,15.20
2018-04-06T19:46:29.738Z,15.09
2018-04-06T19:48:57.342Z,15.17
2018-04-06T19:51:24.899Z,15.20
2018-04-06T19:53:52.694Z,15.21
2018-04-06T19:56:20.262Z,15.25
2018-04-06T19:58:48.030Z,15.26
2018-04-06T20:01:15.606Z,15.29
2018-04-06T20:03:43.178Z,15.30
2018-04-06T20:08:44.498Z,15.06
2018-04-06T20:11:12.319Z,14.98
2018-04-06T20:13:40.059Z,14.94
2018-04-06T20:16:07.644Z,14.85
2018-04-06T20:18:35.236Z,14.80
2018-04-06T20:21:02.811Z,14.68
2018-04-06T20:23:30.430Z,14.66
2018-04-06T20:25:57.990Z,14.65
2018-04-06T20:28:25.766Z,14.61
2018-04-06T20:30:53.342Z,14.60
2018-04-06T20:33:21.066Z,14.62
2018-04-06T20:35:48.920Z,14.59
2018-04-06T20:38:16.485Z,14.48
2018-04-06T20:40:44.046Z,14.36
2018-04-06T20:43:11.775Z,14.31
2018-04-06T20:45:40.056Z,14.35
2018-04-06T20:48:07.914Z,14.26
2018-04-06T20:50:35.633Z,14.23
2018-04-06T20:53:03.355Z,14.22
2018-04-06T20:55:31.169Z,14.19
2018-04-06T20:57:58.988Z,14.23
2018-04-06T21:00:26.606Z,14.27
2018-04-06T21:02:54.205Z,14.25
2018-04-06T21:05:21.770Z,14.21
2018-04-06T21:07:49.559Z,14.13
2018-04-06T21:10:17.136Z,14.05
2018-04-06T21:12:44.788Z,14.04
2018-04-06T21:15:12.360Z,14.07
2018-04-06T21:17:39.926Z,14.11
2018-04-06T21:20:07.674Z,14.12
2018-04-06T21:22:35.468Z,14.15
2018-04-06T21:25:03.094Z,14.17
2018-04-06T21:27:30.656Z,14.13
2018-04-06T21:29:58.242Z,14.12
2018-04-06T21:32:25.847Z,14.14
2018-04-06T21:34:53.657Z,14.18
2018-04-06T21:37:21.288Z,14.17
2018-04-06T21:39:49.009Z,14.15
2018-04-06T21:42:16.571Z,14.14
2018-04-06T21:44:44.182Z,14.12
2018-04-06T21:47:11.774Z,14.12
2018-04-06T21:49:39.404Z,14.06
2018-04-06T21:52:07.183Z,14.05
2018-04-06T21:54:34.742Z,14.14
2018-04-06T21:57:02.419Z,14.10
2018-04-06T21:59:30.018Z,14.15
2018-04-06T22:01:57.856Z,14.16
2018-04-06T22:04:25.409Z,14.15
2018-04-06T22:06:53.169Z,14.16
2018-04-06T22:09:20.826Z,14.19
2018-04-06T22:11:48.630Z,14.14
2018-04-06T22:14:16.205Z,14.06
2018-04-06T22:16:43.766Z,14.02
2018-04-06T22:19:11.482Z,14.03
2018-04-06T22:21:39.301Z,14.01
2018-04-06T22:24:06.869Z,13.96
2018-04-06T22:26:34.446Z,13.96
2018-04-06T22:29:02.257Z,13.90
2018-04-06T22:31:29.864Z,13.84
2018-04-06T22:33:57.594Z,13.85
2018-04-06T22:36:25.200Z,13.81
2018-04-06T22:38:52.773Z,13.81
2018-04-06T22:41:20.330Z,13.76
2018-04-06T22:43:47.898Z,13.75
2018-04-06T22:46:15.466Z,13.64
2018-04-06T22:48:43.030Z,13.61
2018-04-06T22:51:10.601Z,13.63
2018-04-06T22:53:38.162Z,13.65
2018-04-06T22:56:05.725Z,13.66
2018-04-06T22:58:33.294Z,13.69
2018-04-06T23:01:00.853Z,13.66
2018-04-06T23:03:28.410Z,13.67
2018-04-06T23:05:55.978Z,13.71
2018-04-06T23:08:23.539Z,13.76
2018-04-06T23:10:51.120Z,13.73
2018-04-06T23:13:18.876Z,13.74
2018-04-06T23:15:46.694Z,13.82
2018-04-06T23:18:14.513Z,13.76
2018-04-06T23:20:42.237Z,13.71
2018-04-06T23:23:09.841Z,13.76
2018-04-06T23:25:37.426Z,13.70
2018-04-06T23:28:05.185Z,13.73
2018-04-06T23:30:32.763Z,13.75
2018-04-06T23:33:00.330Z,13.76
2018-04-06T23:35:27.906Z,13.71
2018-04-06T23:37:55.632Z,13.66
2018-04-06T23:40:23.195Z,13.58
2018-04-06T23:42:50.766Z,13.58
2018-04-06T23:45:18.511Z,13.58
2018-04-06T23:47:46.074Z,13.58
2018-04-06T23:50:13.848Z,13.45
2018-04-06T23:52:41.390Z,13.43
2018-04-06T23:55:09.078Z,13.37
2018-04-06T23:57:36.638Z,13.40
